Time;durP1;ratioP1;P1;durP2;ratioP2;P2;SDS_P1;SDS_P2;PMS_P1;PMS_P2;Temp;Humidity;BMP_temperature;BMP_pressure;BME280_temperature;BME280_humidity;BME280_pressure;Samples;Min_cycle;Max_cycle;Signal;HPM_P1;HPM_P2
2022/02/09 00:06:44;;;;;;;;;;;4.40;52.30;;;2.72;54.99;97366.25;4947975;28;20609;-65
2022/02/09 00:09:10;;;;;;;;;;;4.40;52.30;;;2.67;55.00;97376.13;4971224;28;19918;-65
2022/02/09 00:12:23;;;;;;;;;;;4.40;52.60;;;2.64;55.06;97376.34;4955285;28;20371;-65
2022/02/09 00:20:17;;;;;;;;;;;4.40;53.10;;;2.56;55.73;97378.66;4972706;28;19940;-65
2022/02/09 00:25:38;;;;;;;;;;;4.40;53.20;;;2.55;56.56;97377.84;4955491;28;19940;-65
2022/02/09 01:56:49;;;;;;;;;;;4.30;55.20;;;2.33;57.67;97378.50;4970910;28;20496;-65
2022/02/09 01:59:15;;;;;;;;;;;4.20;54.90;;;2.33;58.13;97381.09;4954022;28;19918;-65
2022/02/09 02:01:40;;;;;;;;;;;4.20;55.50;;;2.31;57.98;97376.97;4970633;28;20608;-65
2022/02/09 02:04:06;;;;;;;;;;;4.10;55.40;;;2.30;57.73;97373.53;4937528;28;19926;-65
2022/02/09 02:06:34;;;;;;;;;;;4.10;55.60;;;2.24;57.97;97368.75;4970905;28;19921;-65
2022/02/09 02:09:00;;;;;;;;;;;4.10;55.80;;;2.25;58.11;97370.41;4940444;28;20382;-65
2022/02/09 02:11:34;;;;;;;;;;;4.10;55.70;;;2.23;58.64;97377.47;4969104;28;19924;-65
2022/02/09 02:14:25;;;;;;;;;;;4.00;55.90;;;2.21;58.55;97363.78;4970734;28;20296;-65
2022/02/09 02:17:09;;;;;;;;;;;4.00;55.90;;;2.22;58.62;97365.44;4956383;28;19925;-65
2022/02/09 02:19:42;;;;;;;;;;;4.10;56.20;;;2.25;58.55;97365.22;4969263;28;20346;-65
2022/02/09 02:30:19;;;;;;;;;;;4.00;57.40;;;2.22;60.08;97365.44;4966367;28;19988;-65
2022/02/09 02:33:02;;;;;;;;;;;4.00;57.70;;;2.20;59.51;97362.09;4965949;28;20017;-65
2022/02/09 02:36:03;;;;;;;;;;;3.90;58.10;;;2.17;59.75;97361.50;4945172;28;20293;-65
2022/02/09 02:42:05;;;;;;;;;;;3.90;58.30;;;2.13;60.04;97353.09;4954860;28;20390;-65
2022/02/09 02:47:08;;;;;;;;;;;3.80;58.60;;;2.11;60.64;97331.59;4952359;28;19985;-65
2022/02/09 03:08:46;;;;;;;;;;;4.10;58.80;;;2.22;61.79;97329.09;4955790;28;19965;-65
2022/02/09 03:13:52;;;;;;;;;;;4.00;59.00;;;2.18;61.18;97319.84;4968955;28;19929;-65
2022/02/09 03:16:27;;;;;;;;;;;4.00;59.20;;;2.21;61.35;97331.78;4968885;28;19918;-65
2022/02/09 03:24:22;;;;;;;;;;;4.00;59.30;;;2.20;61.42;97325.78;4958591;28;20020;-66
2022/02/09 03:27:24;;;;;;;;;;;4.10;59.60;;;2.20;62.17;97323.16;4973981;28;19965;-65
2022/02/09 03:46:20;;;;;;;;;;;4.00;60.80;;;2.18;62.53;97312.06;4972904;28;19944;-66
2022/02/09 03:49:03;;;;;;;;;;;4.10;60.60;;;2.12;62.51;97296.94;4968562;28;20382;-65
2022/02/09 03:54:30;;;;;;;;;;;4.00;61.30;;;2.13;63.23;97304.63;4971992;28;19968;-65
2022/02/09 03:57:21;;;;;;;;;;;4.00;61.40;;;2.16;63.79;97303.56;4972323;28;20297;-66
2022/02/09 03:59:47;;;;;;;;;;;4.10;61.60;;;2.16;64.24;97303.56;4972319;28;19922;-65
2022/02/09 04:02:13;;;;;;;;;;;4.10;61.80;;;2.14;63.64;97287.28;4972822;28;19924;-65
2022/02/09 04:04:38;;;;;;;;;;;4.10;61.90;;;2.13;63.35;97286.44;4971063;28;19968;-65
2022/02/09 04:07:05;;;;;;;;;;;4.00;62.00;;;2.10;64.04;97271.09;4972951;28;19922;-65
2022/02/09 04:09:33;;;;;;;;;;;4.00;62.30;;;2.10;63.54;97273.69;4971416;28;20394;-66
2022/02/09 04:12:15;;;;;;;;;;;4.00;62.30;;;2.13;64.10;97275.22;4949215;28;20387;-66
2022/02/09 04:14:55;;;;;;;;;;;4.10;62.50;;;2.12;64.68;97270.97;4967658;28;19929;-68
2022/02/09 04:17:32;;;;;;;;;;;4.00;62.60;;;2.09;64.56;97276.38;4972844;28;20299;-68
2022/02/09 04:23:08;;;;;;;;;;;3.90;63.10;;;2.09;64.42;97276.38;4970877;28;19921;-68
2022/02/09 04:39:45;;;;;;;;;;;3.80;64.20;;;2.01;65.68;97252.72;4970847;28;19918;-66
2022/02/09 04:44:46;;;;;;;;;;;3.80;64.60;;;2.00;66.81;97284.78;4955696;28;19976;-65
2022/02/09 04:55:11;;;;;;;;;;;3.90;65.00;;;2.04;65.98;97268.94;4954845;28;20271;-65
2022/02/09 04:57:47;;;;;;;;;;;4.00;64.70;;;2.08;66.54;97264.34;4967868;28;19918;-66
2022/02/09 05:00:25;;;;;;;;;;;4.00;64.40;;;2.09;65.82;97248.66;4970254;28;20079;-66
2022/02/09 05:17:38;;;;;;;;;;;4.00;64.30;;;2.08;66.21;97247.00;4953514;28;19918;-66
2022/02/09 05:29:25;;;;;;;;;;;4.10;63.00;;;2.21;65.04;97244.34;4969002;28;19949;-66
2022/02/09 05:31:51;;;;;;;;;;;4.10;63.40;;;2.20;64.79;97253.09;4969723;28;20404;-66
2022/02/09 05:34:16;;;;;;;;;;;4.10;63.30;;;2.21;65.71;97249.56;4970136;28;19922;-66
2022/02/09 05:36:42;;;;;;;;;;;4.10;63.40;;;2.18;65.92;97247.19;4970978;28;20243;-68
2022/02/09 05:39:08;;;;;;;;;;;4.10;63.80;;;2.19;65.92;97243.63;4953447;28;19918;-69
2022/02/09 05:41:41;;;;;;;;;;;4.10;64.40;;;2.18;66.45;97254.97;4985263;28;19926;-66
2022/02/09 05:44:07;;;;;;;;;;;4.10;64.50;;;2.19;66.23;97248.00;4969426;28;19926;-65
2022/02/09 05:47:01;;;;;;;;;;;4.10;64.20;;;2.17;65.79;97242.09;4969264;28;19992;-64
2022/02/09 05:56:42;;;;;;;;;;;4.10;65.00;;;2.10;66.85;97244.31;4969465;28;19918;-67
2022/02/09 06:01:34;;;;;;;;;;;3.80;65.90;;;1.94;67.73;97246.31;4961962;28;20387;-66
2022/02/09 06:03:59;;;;;;;;;;;3.70;67.20;;;1.86;68.24;97239.06;4964300;28;19918;-66
2022/02/09 06:06:25;;;;;;;;;;;3.70;67.00;;;1.83;68.66;97245.31;4951911;28;19934;-67
2022/02/09 06:08:51;;;;;;;;;;;3.70;67.00;;;1.83;68.42;97244.47;4952709;28;20394;-65
2022/02/09 06:11:26;;;;;;;;;;;3.70;66.80;;;1.77;68.62;97243.13;4969539;28;19949;-67
2022/02/09 06:21:46;;;;;;;;;;;3.40;68.10;;;1.57;69.87;97254.03;4949799;28;19941;-66
2022/02/09 06:24:12;;;;;;;;;;;3.40;68.20;;;1.47;69.14;97247.84;4967961;28;19922;-68
2022/02/09 06:26:38;;;;;;;;;;;3.30;68.60;;;1.39;70.07;97266.50;4949715;28;19918;-66
2022/02/09 06:29:04;;;;;;;;;;;3.20;69.10;;;1.40;70.12;97267.34;4968702;28;19983;-66
2022/02/09 06:31:31;;;;;;;;;;;3.20;69.20;;;1.32;69.93;97264.41;4968798;28;20483;-65
2022/02/09 06:33:57;;;;;;;;;;;3.10;69.50;;;1.30;70.58;97266.28;4968436;28;19989;-65
2022/02/09 06:36:25;;;;;;;;;;;3.10;69.40;;;1.26;70.57;97265.66;4966049;28;20308;-66
2022/02/09 06:38:51;;;;;;;;;;;3.10;69.60;;;1.27;70.57;97261.31;4965637;28;19965;-67
2022/02/09 06:41:17;;;;;;;;;;;3.10;69.50;;;1.20;70.59;97256.53;4951440;28;19918;-67
2022/02/09 06:43:42;;;;;;;;;;;3.10;69.70;;;1.21;70.36;97253.03;4961090;28;19932;-67
2022/02/09 06:46:08;;;;;;;;;;;3.10;69.50;;;1.17;70.71;97254.16;4968129;28;19918;-66
2022/02/09 06:48:34;;;;;;;;;;;3.00;69.70;;;1.14;70.21;97251.78;4966570;28;19921;-67
2022/02/09 06:51:11;;;;;;;;;;;3.00;69.80;;;1.12;70.28;97252.78;4950880;28;19918;-67
2022/02/09 06:53:45;;;;;;;;;;;3.00;69.80;;;1.06;71.21;97254.03;4950717;28;20168;-67
2022/02/09 06:56:13;;;;;;;;;;;3.00;69.80;;;1.08;70.44;97257.34;4955496;28;19918;-66
2022/02/09 06:58:45;;;;;;;;;;;2.90;70.00;;;0.99;70.67;97247.59;4972662;28;19936;-68
2022/02/09 07:01:11;;;;;;;;;;;2.80;70.20;;;0.95;70.78;97251.34;4970538;28;19918;-67
2022/02/09 07:03:37;;;;;;;;;;;2.80;70.80;;;0.93;71.63;97248.03;4970609;28;19922;-66
2022/02/09 07:06:03;;;;;;;;;;;2.80;70.90;;;0.91;71.77;97255.91;4972707;28;20385;-66
2022/02/09 07:08:28;;;;;;;;;;;2.80;70.80;;;0.87;71.28;97248.41;4971452;28;19975;-66
2022/02/09 07:10:54;;;;;;;;;;;2.80;70.90;;;0.88;71.50;97244.88;4954182;28;19926;-66
2022/02/09 07:13:20;;;;;;;;;;;2.80;70.70;;;0.89;71.33;97246.53;4972661;28;19918;-65
2022/02/09 07:15:53;;;;;;;;;;;2.80;70.70;;;0.90;71.19;97243.84;4971040;28;19937;-65
2022/02/09 07:18:19;;;;;;;;;;;2.80;70.70;;;0.91;71.49;97242.13;4971454;28;20396;-66
2022/02/09 07:23:23;;;;;;;;;;;2.80;70.90;;;0.89;71.54;97243.94;4971219;28;19926;-65
2022/02/09 07:26:03;;;;;;;;;;;2.80;70.90;;;0.95;71.13;97251.34;4943964;28;19921;-66
2022/02/09 07:28:28;;;;;;;;;;;3.00;70.40;;;0.96;71.26;97237.44;4971289;28;20016;-66
2022/02/09 07:30:54;;;;;;;;;;;3.10;70.20;;;1.02;72.03;97238.78;4955206;28;20361;-65
2022/02/09 07:33:20;;;;;;;;;;;3.40;70.00;;;1.15;71.60;97242.25;4969679;28;19918;-65
2022/02/09 07:35:45;;;;;;;;;;;3.80;69.20;;;1.32;71.97;97248.84;4948688;28;19918;-61
2022/02/09 07:38:11;;;;;;;;;;;4.10;67.90;;;1.47;71.77;97245.25;4969882;28;19929;-67
2022/02/09 07:40:42;;;;;;;;;;;4.40;67.20;;;1.58;70.59;97240.13;4970481;28;19944;-65
2022/02/09 07:43:13;;;;;;;;;;;4.50;65.60;;;1.75;69.20;97237.22;4971807;28;19964;-66
2022/02/09 07:50:49;;;;;;;;;;;5.40;62.30;;;2.29;68.98;97228.25;4968915;28;20036;-65
2022/02/09 07:55:47;;;;;;;;;;;6.10;60.00;;;2.71;66.53;97232.09;4970176;28;19933;-66
2022/02/09 07:58:12;;;;;;;;;;;6.40;58.30;;;2.88;67.31;97221.28;4955212;28;19922;-66
2022/02/09 08:00:38;;;;;;;;;;;6.70;58.00;;;3.12;66.89;97220.41;4969688;28;19928;-67
2022/02/09 08:03:04;;;;;;;;;;;7.00;56.60;;;3.36;66.39;97218.53;4971725;28;19992;-68
2022/02/09 08:05:31;;;;;;;;;;;7.50;55.70;;;3.63;66.58;97228.63;4954160;28;19926;-65
2022/02/09 08:07:57;;;;;;;;;;;7.60;55.30;;;3.81;66.09;97223.75;4968963;28;20052;-65
2022/02/09 08:24:21;;;;;;;;;;;6.90;56.90;;;4.15;64.36;97220.16;4970345;28;19918;-66
2022/02/09 08:26:54;;;;;;;;;;;7.10;56.60;;;4.27;64.77;97218.34;4970950;28;19925;-66
2022/02/09 08:29:42;;;;;;;;;;;7.40;55.90;;;4.33;64.50;97209.25;4967665;28;19931;-67
2022/02/09 08:34:33;;;;;;;;;;;7.80;55.60;;;4.66;65.83;97227.34;4971248;28;19922;-68
2022/02/09 08:36:59;;;;;;;;;;;8.30;55.10;;;4.89;63.76;97215.03;4970627;28;19918;-68
2022/02/09 08:39:25;;;;;;;;;;;8.60;53.30;;;5.05;62.88;97212.00;4969426;28;19925;-67
2022/02/09 08:41:51;;;;;;;;;;;8.60;52.80;;;5.19;63.27;97220.31;4986430;28;19918;-67
2022/02/09 08:44:16;;;;;;;;;;;8.80;52.20;;;5.41;62.52;97218.53;4950886;28;19938;-65
2022/02/09 08:46:43;;;;;;;;;;;9.40;51.00;;;5.66;61.98;97225.09;4964534;28;20326;-65
2022/02/09 08:49:09;;;;;;;;;;;9.70;50.30;;;5.88;62.18;97216.25;4969596;28;20004;-66
2022/02/09 08:51:35;;;;;;;;;;;9.70;50.30;;;6.10;62.01;97216.91;4968909;28;19922;-67
2022/02/09 08:54:01;;;;;;;;;;;10.00;49.40;;;6.31;60.90;97218.59;4943780;28;19949;-66
2022/02/09 08:56:28;;;;;;;;;;;10.20;49.10;;;6.48;60.63;97207.50;4970519;28;20052;-67
2022/02/09 08:58:54;;;;;;;;;;;10.40;48.30;;;6.63;60.24;97203.53;4956535;28;19922;-66
2022/02/09 09:01:32;;;;;;;;;;;10.20;48.30;;;6.73;59.96;97199.09;4950926;28;19941;-66
2022/02/09 09:04:02;;;;;;;;;;;10.20;48.80;;;6.84;60.37;97194.72;4960664;28;20402;-65
2022/02/09 09:06:29;;;;;;;;;;;10.50;48.00;;;6.97;59.91;97190.81;4956362;28;19918;-66
2022/02/09 10:03:06;;;;;;;;;;;24.60;24.50;;;14.79;49.54;97176.31;4968579;28;19932;-66
2022/02/09 10:31:51;;;;;;;;;;;33.60;16.40;;;20.75;43.40;97154.56;4959265;28;19933;-67
2022/02/09 10:34:19;;;;;;;;;;;34.00;16.00;;;21.17;43.72;97149.22;4964320;28;19962;-65
2022/02/09 10:36:50;;;;;;;;;;;34.50;15.50;;;21.51;43.40;97138.81;4968818;28;19918;-68
2022/02/09 10:39:32;;;;;;;;;;;34.50;15.70;;;21.83;40.96;97134.72;4969095;28;19981;-67
2022/02/09 10:42:17;;;;;;;;;;;35.10;15.40;;;22.10;41.45;97132.34;4953848;28;19918;-66
2022/02/09 10:44:49;;;;;;;;;;;35.10;15.10;;;22.41;41.62;97122.25;4969960;28;19930;-63
2022/02/09 10:47:41;;;;;;;;;;;35.80;14.60;;;22.60;43.15;97124.47;4968852;28;20389;-66
2022/02/09 10:50:17;;;;;;;;;;;35.20;14.70;;;22.83;41.40;97118.22;4966653;28;21573;-64
2022/02/09 10:52:49;;;;;;;;;;;35.60;14.10;;;22.96;42.54;97111.75;4969705;28;20285;-66
2022/02/09 10:55:43;;;;;;;;;;;35.60;14.20;;;23.04;38.62;97103.28;4952996;28;20312;-67
2022/02/09 10:58:16;;;;;;;;;;;34.90;14.90;;;22.92;39.71;97107.94;4964156;28;19917;-66
2022/02/09 11:00:46;;;;;;;;;;;33.50;14.30;;;22.75;36.56;97104.38;4968475;28;19917;-68
2022/02/09 11:03:27;;;;;;;;;;;32.50;15.00;;;22.58;41.43;97112.38;4952882;28;19918;-64
2022/02/09 11:05:55;;;;;;;;;;;31.60;15.10;;;22.39;37.69;97098.34;4954991;28;19944;-68
2022/02/09 11:08:21;;;;;;;;;;;30.90;15.80;;;22.01;36.91;97097.06;4951493;28;19918;-68
2022/02/09 11:10:50;;;;;;;;;;;28.80;16.70;;;21.57;36.04;97095.03;4967792;28;19924;-68
2022/02/09 11:13:15;;;;;;;;;;;28.30;17.60;;;21.13;39.12;97097.19;4967705;28;20021;-66
2022/02/09 11:15:43;;;;;;;;;;;28.10;17.90;;;20.97;36.14;97088.00;4954233;28;19930;-66
2022/02/09 11:18:12;;;;;;;;;;;28.50;17.70;;;20.94;36.52;97088.44;4952228;28;19922;-66
2022/02/09 11:20:57;;;;;;;;;;;29.20;17.10;;;20.70;35.54;97079.56;4952497;28;19929;-66
2022/02/09 11:23:45;;;;;;;;;;;28.70;16.60;;;20.48;37.24;97089.16;4983724;28;19925;-67
2022/02/09 11:26:34;;;;;;;;;;;28.70;17.20;;;20.53;39.03;97077.78;4967761;28;19925;-66
2022/02/09 11:34:28;;;;;;;;;;;31.70;15.00;;;21.30;36.16;97071.41;4968090;28;20125;-67
2022/02/09 11:37:01;;;;;;;;;;;32.10;15.00;;;21.62;34.65;97074.53;4967936;28;19933;-66
2022/02/09 11:39:49;;;;;;;;;;;32.50;14.80;;;22.14;35.93;97074.53;4968316;28;20008;-67
2022/02/09 11:42:54;;;;;;;;;;;33.80;13.90;;;22.70;35.45;97059.50;4966921;28;20401;-64
2022/02/09 11:51:25;;;;;;;;;;;37.00;11.60;;;24.45;35.32;97050.94;4976818;28;19925;-68
2022/02/09 11:57:05;;;;;;;;;;;38.50;11.30;;;25.56;35.21;97037.53;4979320;28;19924;-65
2022/02/09 12:11:29;;;;;;;;;;;39.40;10.80;;;27.85;29.56;97019.75;4968739;28;19960;-68
2022/02/09 12:16:40;;;;;;;;;;;39.20;11.00;;;28.57;30.67;97006.66;4948788;28;19922;-67
2022/02/09 12:19:09;;;;;;;;;;;40.50;10.60;;;28.97;30.01;97005.53;4966236;28;19924;-66
2022/02/09 12:21:50;;;;;;;;;;;40.80;10.00;;;29.17;31.01;97008.03;4954148;28;20020;-67
2022/02/09 12:24:27;;;;;;;;;;;41.20;10.00;;;29.51;30.46;96999.88;4955141;28;19990;-66
2022/02/09 12:26:56;;;;;;;;;;;41.70;9.80;;;29.79;31.27;97006.31;4952318;28;19917;-68
2022/02/09 12:29:22;;;;;;;;;;;41.00;9.90;;;29.99;29.62;97004.44;4968378;28;19972;-67
2022/02/09 12:31:48;;;;;;;;;;;41.30;9.80;;;30.35;29.27;97002.09;4967980;28;20381;-66
2022/02/09 12:34:24;;;;;;;;;;;41.60;9.70;;;30.38;27.93;96994.16;4944592;28;19973;-66
2022/02/09 12:36:50;;;;;;;;;;;41.50;9.70;;;30.48;30.62;96991.28;4969118;28;19921;-67
2022/02/09 12:39:16;;;;;;;;;;;40.70;10.10;;;30.73;29.46;96981.16;4950309;28;19972;-68
2022/02/09 12:41:42;;;;;;;;;;;41.00;10.10;;;30.84;26.77;96979.88;4955889;28;19918;-66
2022/02/09 12:44:08;;;;;;;;;;;41.50;9.70;;;30.73;30.72;96981.94;4952949;28;19968;-66
2022/02/09 12:46:35;;;;;;;;;;;41.50;9.80;;;30.97;30.55;96972.88;4952845;28;20413;-66
2022/02/09 12:49:04;;;;;;;;;;;41.50;9.60;;;30.89;28.41;96979.78;4967802;28;19918;-67
2022/02/09 12:51:30;;;;;;;;;;;40.90;10.00;;;31.07;26.36;96970.78;4965123;28;19928;-67
2022/02/09 12:53:56;;;;;;;;;;;41.70;9.90;;;31.00;27.51;96974.97;4962745;28;19938;-66
2022/02/09 12:56:35;;;;;;;;;;;41.10;9.80;;;30.99;29.63;96974.16;4955908;28;19972;-67
2022/02/09 12:59:06;;;;;;;;;;;41.10;10.00;;;31.14;26.56;96970.38;4948574;28;19922;-67
2022/02/09 13:01:41;;;;;;;;;;;41.30;9.80;;;31.14;26.44;96972.28;4965840;28;20406;-66
2022/02/09 13:04:07;;;;;;;;;;;41.40;9.90;;;31.25;30.04;96966.41;4980006;28;19952;-67
2022/02/09 13:06:33;;;;;;;;;;;41.20;9.80;;;31.21;27.37;96964.56;4966978;28;20313;-66
2022/02/09 13:08:59;;;;;;;;;;;41.10;10.00;;;31.37;28.82;96963.19;4952601;28;19918;-67
2022/02/09 13:11:30;;;;;;;;;;;41.80;9.80;;;31.49;26.15;96962.72;4952741;28;20424;-66
2022/02/09 13:14:05;;;;;;;;;;;41.80;9.50;;;31.34;28.62;96956.44;4962610;28;19918;-68
2022/02/09 13:16:42;;;;;;;;;;;40.80;10.10;;;31.39;28.31;96966.41;4953014;28;19922;-66
2022/02/09 13:19:27;;;;;;;;;;;40.70;10.20;;;31.30;26.77;96962.78;4969203;28;19918;-66
2022/02/09 13:22:40;;;;;;;;;;;41.00;10.00;;;31.35;28.41;96962.69;4968763;28;20013;-67
2022/02/09 13:54:03;;;;;;;;;;;39.60;11.00;;;31.25;26.49;96938.44;4966643;28;20393;-70
2022/02/09 14:07:48;;;;;;;;;;;39.40;11.30;;;30.84;26.11;96927.47;4953125;28;20616;-67
2022/02/09 14:17:47;;;;;;;;;;;37.50;12.50;;;30.26;25.90;96917.78;4963373;28;19922;-64
2022/02/09 14:32:37;;;;;;;;;;;36.50;12.90;;;29.60;27.94;96910.56;4960931;28;19936;-65
2022/02/09 14:53:05;;;;;;;;;;;31.30;16.90;;;27.76;28.42;96897.00;4963228;28;19929;-67
2022/02/09 14:55:47;;;;;;;;;;;30.60;17.50;;;27.48;28.16;96894.97;4962807;28;19929;-65
2022/02/09 14:58:15;;;;;;;;;;;30.40;17.70;;;27.30;28.02;96894.50;4966160;28;19954;-65
2022/02/09 15:01:06;;;;;;;;;;;30.20;17.90;;;26.94;28.22;96899.19;4969163;28;19925;-65
2022/02/09 15:11:22;;;;;;;;;;;28.10;20.00;;;24.46;30.59;96902.75;4966001;28;19922;-64
2022/02/09 15:16:39;;;;;;;;;;;27.10;21.20;;;23.25;30.33;96899.59;4967735;28;19925;-67
2022/02/09 15:19:26;;;;;;;;;;;26.50;21.90;;;22.73;30.59;96898.06;4967871;28;19922;-64
2022/02/09 15:22:09;;;;;;;;;;;25.90;22.70;;;22.35;30.45;96898.81;4972055;28;19925;-68
2022/02/09 15:24:39;;;;;;;;;;;25.30;23.30;;;21.91;31.33;96898.59;4967150;28;20008;-65
2022/02/09 15:27:13;;;;;;;;;;;24.50;24.20;;;21.40;32.09;96903.00;4965449;28;19922;-65
2022/02/09 15:29:39;;;;;;;;;;;23.40;25.40;;;20.77;32.28;96906.47;4952220;28;19944;-65
2022/02/09 15:32:10;;;;;;;;;;;22.30;26.90;;;20.12;33.89;96895.81;4966209;28;19918;-66
2022/02/09 15:34:43;;;;;;;;;;;21.40;28.10;;;19.47;33.17;96898.38;4965915;28;19926;-66
2022/02/09 15:37:18;;;;;;;;;;;20.50;29.70;;;18.82;35.10;96900.78;4969398;28;19918;-66
2022/02/09 15:39:51;;;;;;;;;;;19.70;30.90;;;18.19;35.70;96900.94;4967612;28;19922;-66
2022/02/09 15:42:45;;;;;;;;;;;18.90;32.30;;;17.60;35.54;96895.97;4965993;28;19987;-65
2022/02/09 16:21:41;;;;;;;;;;;13.80;43.90;;;12.61;43.02;96888.91;4967650;28;19988;-65
2022/02/09 16:24:06;;;;;;;;;;;13.60;44.20;;;12.33;43.12;96894.00;4965106;28;19921;-67
2022/02/09 16:37:41;;;;;;;;;;;12.70;46.60;;;11.42;45.70;96905.41;4971517;28;19966;-64
2022/02/09 16:45:43;;;;;;;;;;;12.20;48.00;;;10.89;47.24;96900.94;4969109;28;19980;-65
2022/02/09 16:48:09;;;;;;;;;;;12.10;48.60;;;10.74;47.45;96899.00;4956385;28;19960;-65
2022/02/09 16:50:39;;;;;;;;;;;12.00;48.90;;;10.64;47.49;96902.84;4949838;28;20305;-65
2022/02/09 16:53:35;;;;;;;;;;;11.90;49.20;;;10.53;48.54;96911.06;4971709;28;19926;-65
2022/02/09 17:20:24;;;;;;;;;;;10.80;52.50;;;9.42;49.64;96884.50;4970269;28;19925;-67
2022/02/09 17:22:49;;;;;;;;;;;10.70;52.80;;;9.34;50.72;96885.31;4970237;28;19922;-67
2022/02/09 17:25:17;;;;;;;;;;;10.60;53.20;;;9.24;52.43;96883.81;4953645;28;19965;-67
2022/02/09 17:27:46;;;;;;;;;;;10.50;53.60;;;9.12;52.21;96889.38;4959644;28;19940;-66
2022/02/09 17:33:04;;;;;;;;;;;10.30;54.20;;;8.98;51.92;96902.28;4970070;28;20331;-67
2022/02/09 17:35:36;;;;;;;;;;;10.20;54.40;;;8.86;51.48;96901.78;4964483;28;19957;-67
2022/02/09 17:57:41;;;;;;;;;;;9.70;57.40;;;8.33;53.68;96900.16;4955056;28;19949;-66
2022/02/09 18:00:16;;;;;;;;;;;9.60;57.50;;;8.26;54.13;96889.47;4970581;28;20037;-65
2022/02/09 18:02:48;;;;;;;;;;;9.50;57.80;;;8.20;54.44;96897.13;4969145;28;19984;-65
2022/02/09 18:05:22;;;;;;;;;;;9.50;57.80;;;8.09;55.27;96889.53;4970174;28;19945;-65
2022/02/09 18:07:53;;;;;;;;;;;9.40;58.10;;;8.03;55.92;96892.75;4953795;28;19918;-64
2022/02/09 18:10:39;;;;;;;;;;;9.30;58.20;;;7.91;54.50;96893.00;4968707;28;20001;-66
2022/02/09 18:27:22;;;;;;;;;;;9.00;60.10;;;7.71;56.08;96881.09;4970108;28;19976;-66
2022/02/09 18:29:53;;;;;;;;;;;9.00;60.10;;;7.68;55.63;96874.31;4963909;28;19918;-65
2022/02/09 18:37:55;;;;;;;;;;;8.90;60.00;;;7.61;56.63;96875.09;4953154;28;19921;-66
2022/02/09 18:42:59;;;;;;;;;;;8.80;60.60;;;7.54;56.40;96879.31;4970171;28;19922;-67
2022/02/09 18:59:24;;;;;;;;;;;8.20;60.80;;;6.86;56.90;96863.28;4972748;28;19979;-66
2022/02/09 19:14:58;;;;;;;;;;;7.60;62.50;;;6.23;58.02;96860.53;4973009;28;20444;-64
2022/02/09 19:17:33;;;;;;;;;;;7.60;62.70;;;6.14;59.34;96873.50;4964924;28;19926;-65
2022/02/09 19:30:56;;;;;;;;;;;7.20;64.20;;;5.74;60.07;96865.03;4971714;28;19940;-64
2022/02/09 19:46:52;;;;;;;;;;;6.90;66.00;;;5.42;61.70;96866.16;4955269;28;19914;-64
2022/02/09 19:52:15;;;;;;;;;;;6.80;65.30;;;5.31;61.16;96860.25;4971886;28;19966;-64
2022/02/09 19:55:00;;;;;;;;;;;6.70;65.20;;;5.29;62.46;96859.56;4953519;28;19961;-65
2022/02/09 19:57:26;;;;;;;;;;;6.70;66.40;;;5.20;62.71;96856.00;4957201;28;19918;-65
2022/02/09 19:59:54;;;;;;;;;;;6.70;67.30;;;5.16;63.34;96859.84;4972698;28;19924;-64
2022/02/09 20:02:19;;;;;;;;;;;6.60;67.10;;;5.10;63.53;96861.22;4971480;28;19933;-64
2022/02/09 20:04:45;;;;;;;;;;;6.60;67.20;;;5.07;62.80;96855.44;4987433;28;20590;-64
2022/02/09 20:07:11;;;;;;;;;;;6.60;67.40;;;5.05;63.84;96857.38;4971461;28;19921;-65
2022/02/09 20:09:36;;;;;;;;;;;6.60;67.60;;;5.01;64.22;96846.41;4970964;28;20459;-63
2022/02/09 20:12:02;;;;;;;;;;;6.60;68.10;;;5.03;64.68;96851.47;4955153;28;19934;-64
2022/02/09 20:14:29;;;;;;;;;;;6.50;69.30;;;5.05;65.87;96850.38;4970593;28;20270;-64
2022/02/09 20:16:54;;;;;;;;;;;6.60;69.40;;;5.06;64.13;96846.81;4969448;28;19929;-63
2022/02/09 20:19:20;;;;;;;;;;;6.60;68.80;;;5.09;64.35;96843.91;4971749;28;20343;-64
2022/02/09 20:21:46;;;;;;;;;;;6.60;68.90;;;5.10;65.20;96842.13;4971100;28;19924;-64
2022/02/09 20:24:15;;;;;;;;;;;6.60;68.90;;;5.09;66.38;96849.13;4969767;28;19922;-64
2022/02/09 20:26:40;;;;;;;;;;;6.60;68.70;;;5.07;64.12;96850.25;4963978;28;20038;-64
2022/02/09 20:29:19;;;;;;;;;;;6.60;68.20;;;5.04;63.65;96846.13;4972187;28;19918;-64
2022/02/09 20:32:09;;;;;;;;;;;6.60;68.20;;;5.03;64.05;96844.47;4984535;28;19918;-64
2022/02/09 20:34:36;;;;;;;;;;;6.60;68.50;;;5.05;65.71;96849.56;4972039;28;19926;-64
2022/02/09 20:37:02;;;;;;;;;;;6.60;69.50;;;5.07;64.84;96850.25;4971310;28;19940;-64
2022/02/09 20:39:33;;;;;;;;;;;6.60;69.20;;;5.06;64.09;96848.59;4970080;28;19925;-66
2022/02/09 20:41:59;;;;;;;;;;;6.60;68.80;;;5.06;64.89;96845.97;4972439;28;19925;-67
2022/02/09 20:44:40;;;;;;;;;;;6.60;69.10;;;5.07;63.79;96850.25;4970658;28;20393;-64
2022/02/09 20:47:06;;;;;;;;;;;6.60;68.50;;;5.02;64.08;96855.03;4972229;28;20282;-63
2022/02/09 20:49:32;;;;;;;;;;;6.60;68.70;;;5.01;63.74;96856.00;4970385;28;19924;-63
2022/02/09 20:51:57;;;;;;;;;;;6.50;68.90;;;4.99;64.56;96855.31;4955507;28;19914;-63
2022/02/09 20:54:23;;;;;;;;;;;6.50;69.30;;;4.95;64.38;96856.53;4971518;28;20377;-64
2022/02/09 20:56:49;;;;;;;;;;;6.40;69.40;;;4.91;64.19;96851.59;4972647;28;19914;-63
2022/02/09 20:59:16;;;;;;;;;;;6.40;69.40;;;4.88;64.07;96849.25;4972123;28;19922;-65
2022/02/09 21:01:57;;;;;;;;;;;6.40;69.10;;;4.82;64.84;96852.41;4972109;28;19937;-66
2022/02/09 21:04:26;;;;;;;;;;;6.30;69.40;;;4.78;63.79;96845.81;4970449;28;20021;-65
2022/02/09 21:07:07;;;;;;;;;;;6.20;69.40;;;4.71;65.04;96839.47;4962247;28;19969;-66
2022/02/09 21:17:32;;;;;;;;;;;6.10;69.20;;;4.54;65.01;96853.16;4971009;28;20036;-63
2022/02/09 21:25:51;;;;;;;;;;;6.00;69.50;;;4.43;64.60;96850.66;4969269;28;19918;-63
2022/02/09 21:42:05;;;;;;;;;;;5.70;69.40;;;4.11;65.10;96835.19;4968129;28;19964;-64
2022/02/09 21:49:19;;;;;;;;;;;5.60;70.00;;;3.98;65.65;96840.59;4967071;28;20392;-63
2022/02/09 21:52:48;;;;;;;;;;;5.30;71.10;;;3.82;65.21;96842.84;4947263;28;19940;-64
2022/02/09 21:55:42;;;;;;;;;;;5.10;71.30;;;3.74;65.91;96842.69;4967702;28;19926;-64
2022/02/09 21:58:24;;;;;;;;;;;5.10;71.40;;;3.70;66.15;96842.09;4951354;28;20509;-64
2022/02/09 22:20:18;;;;;;;;;;;5.10;70.50;;;3.49;66.37;96834.31;4968996;28;19925;-64
2022/02/09 22:26:27;;;;;;;;;;;5.10;70.10;;;3.43;65.90;96829.63;4971794;28;19968;-64
2022/02/09 22:28:35;;;;;;;;;;;5.10;69.70;;;3.40;65.32;96822.09;4968485;28;19957;-63
2022/02/09 22:50:27;;;;;;;;;;;4.80;70.50;;;3.17;66.82;96797.97;4970318;28;19981;-63
2022/02/09 22:55:42;;;;;;;;;;;4.80;70.20;;;3.11;66.29;96806.25;4968597;28;19937;-63
2022/02/09 22:58:10;;;;;;;;;;;4.70;70.10;;;3.06;66.40;96805.81;4985424;28;20405;-63
2022/02/09 23:03:42;;;;;;;;;;;4.70;70.10;;;2.94;67.07;96781.66;4968856;28;20008;-64
2022/02/09 23:11:23;;;;;;;;;;;4.50;70.00;;;2.82;67.09;96787.84;4953299;28;19926;-64
2022/02/09 23:16:24;;;;;;;;;;;4.50;70.50;;;2.84;66.79;96791.13;4968610;28;19926;-64
2022/02/09 23:20:03;;;;;;;;;;;4.50;70.50;;;2.82;67.18;96782.66;4985356;28;19918;-64
2022/02/09 23:57:41;;;;;;;;;;;3.50;73.30;;;1.96;67.16;96773.03;4972323;28;20254;-64
